KBNL/BNL METAR and TAF weather

Enter ICAO airport designator
Station Type Date Time Source
KBNL METAR 2019/10/16 18:55 UTC NOAA

KBNL 161855Z AUTO 28009G20KT 250V310 10SM FEW039 FEW047 27/17 A2972 RMK AO2


Station Type Date Time Source
KBNL Decoded METAR 2019/10/16 18:55 UTC NOAA

Station name not available
Oct 16, 2019 - 02:55 PM EDT / 2019.10.16 1855 UTC
Wind: from the W (280 degrees) at 10 MPH (9 KT) gusting to 23 MPH (20 KT) (direction variable):0
Visibility: 10 mile(s):0
Sky conditions: mostly clear
Temperature: 80 F (27 C)
Dew Point: 62 F (17 C)
Relative Humidity: 54%
Pressure (altimeter): 29.72 in. Hg (1006 hPa)
ob: KBNL 161855Z AUTO 28009G20KT 250V310 10SM FEW039 FEW047 27/17 A2972 RMK AO2
cycle: 19

Station Type Date Time Source
KBNL TAF UTC NOAA

Error!

Example: see airport list